Portada
METAR-TAF:

METAR-TAF

Aeroports :

Aeroport de Sant Sebastià

Sant Sebastià, Espanya

latitud: 43-21N, longitud: 001-48W, altitud: 5 m

Observació

L'informe es va fer fa 34 minuts, a les 17:00 UTC
Vent 4 kt del Oest/Sud-Oest, variant entre Sud i Oest/Nord-Oest
Temperatura 18°C
Humitat 88%
Pressió 1019 hPa
Visibilitat: 9000 m
Núvols disperses a una alçada de 1100 ft
Núvols disperses a una alçada de 1400 ft
Cel ennuvolat a una alçada de 1900 ft

METAR: LESO 191700Z 25004KT 190V300 9000 SCT011 SCT014 BKN019 18/16 Q1019

Hora: 19:34 (17:34 UTC)

Pronòstic

L'informe es va fer fa 6 hores i 34 minuts, a les 11:00 UTC
Pronòstic vàlid del 19 a les 12 UTC al 20 a les 12 UTC
Vent 5 kt del Oest
Visibilitat 10 km o més
Núvols disperses a una alçada de 1000 ft
Cel ennuvolat a una alçada de 2500 ft
Probabilitat 30% :
Temporalment
l' 19 a les 20 UTC al 20 a les 07 UTC
Cel ennuvolat a una alçada de 1000 ft

TAF: LESO 191100Z 1912/2012 28005KT 9999 SCT010 BKN025 TX22/1914Z TN16/2003Z PROB30 TEMPO 1920/2007 BKN010

Observacions i pronòstics meteorològics de més de 4000 aeroports (METAR i TAF).

Les estacions disponibles són els punts grocs i vermells al mapa.

Posi el ratolí al punt desitjat per veure el nom de l'estació.

Feu clic per veure les observacions i els pronòstics meteorològics.

Per canviar el mapa: feu clic els botons verds amb una creu de color negre per apropar; al botó verd amb un guió per allunyar la imatge; o en les fletxes verdes per a mapes adjacents.


METAR-TAF: